sensor_id;sensor_type;location;lat;lon;timestamp;temperature;humidity
680;DHT22;322;48.846;9.230;2023-07-29T00:02:03;17.20;99.90
680;DHT22;322;48.846;9.230;2023-07-29T00:04:31;17.30;99.90
680;DHT22;322;48.846;9.230;2023-07-29T00:07:00;17.40;99.90
680;DHT22;322;48.846;9.230;2023-07-29T00:09:28;17.30;99.90
680;DHT22;322;48.846;9.230;2023-07-29T00:11:56;17.30;99.90
680;DHT22;322;48.846;9.230;2023-07-29T00:14:24;17.30;99.90
680;DHT22;322;48.846;9.230;2023-07-29T00:16:52;17.30;99.90
680;DHT22;322;48.846;9.230;2023-07-29T00:19:20;17.30;99.90
680;DHT22;322;48.846;9.230;2023-07-29T00:21:50;17.30;99.90
680;DHT22;322;48.846;9.230;2023-07-29T00:24:19;17.20;99.90
680;DHT22;322;48.846;9.230;2023-07-29T00:26:47;17.30;99.90
680;DHT22;322;48.846;9.230;2023-07-29T00:29:15;17.30;99.90
680;DHT22;322;48.846;9.230;2023-07-29T00:31:42;17.30;99.90
680;DHT22;322;48.846;9.230;2023-07-29T00:34:10;17.30;99.90
680;DHT22;322;48.846;9.230;2023-07-29T00:36:44;17.30;99.90
680;DHT22;322;48.846;9.230;2023-07-29T00:39:11;17.30;99.90
680;DHT22;322;48.846;9.230;2023-07-29T00:41:41;17.50;99.90
680;DHT22;322;48.846;9.230;2023-07-29T00:44:09;17.50;99.90
680;DHT22;322;48.846;9.230;2023-07-29T00:46:38;17.60;99.90
680;DHT22;322;48.846;9.230;2023-07-29T00:49:07;17.60;99.90
680;DHT22;322;48.846;9.230;2023-07-29T00:51:35;17.70;99.90
680;DHT22;322;48.846;9.230;2023-07-29T00:54:03;17.60;99.90
680;DHT22;322;48.846;9.230;2023-07-29T00:56:31;17.60;99.90
680;DHT22;322;48.846;9.230;2023-07-29T00:59:01;17.50;99.90
680;DHT22;322;48.846;9.230;2023-07-29T01:01:31;17.40;99.90
680;DHT22;322;48.846;9.230;2023-07-29T01:03:59;17.40;99.90
680;DHT22;322;48.846;9.230;2023-07-29T01:06:33;17.50;99.90
680;DHT22;322;48.846;9.230;2023-07-29T01:09:07;17.50;99.90
680;DHT22;322;48.846;9.230;2023-07-29T01:11:44;17.50;99.90
680;DHT22;322;48.846;9.230;2023-07-29T01:14:21;17.50;99.90
680;DHT22;322;48.846;9.230;2023-07-29T01:16:56;17.50;99.90
680;DHT22;322;48.846;9.230;2023-07-29T01:19:42;17.40;99.90
680;DHT22;322;48.846;9.230;2023-07-29T01:22:11;17.40;99.90
680;DHT22;322;48.846;9.230;2023-07-29T01:24:40;17.40;99.90
680;DHT22;322;48.846;9.230;2023-07-29T01:27:08;17.50;99.90
680;DHT22;322;48.846;9.230;2023-07-29T01:29:36;17.50;99.90
680;DHT22;322;48.846;9.230;2023-07-29T01:32:10;17.40;99.90
680;DHT22;322;48.846;9.230;2023-07-29T01:34:43;17.50;99.90
680;DHT22;322;48.846;9.230;2023-07-29T01:37:16;17.50;99.90
680;DHT22;322;48.846;9.230;2023-07-29T01:39:50;17.60;99.90
680;DHT22;322;48.846;9.230;2023-07-29T01:42:18;17.60;99.90
680;DHT22;322;48.846;9.230;2023-07-29T01:44:46;17.50;99.90
680;DHT22;322;48.846;9.230;2023-07-29T01:47:16;17.50;99.90
680;DHT22;322;48.846;9.230;2023-07-29T01:49:44;17.60;99.90
680;DHT22;322;48.846;9.230;2023-07-29T01:52:12;17.50;99.90
680;DHT22;322;48.846;9.230;2023-07-29T01:54:40;17.50;99.90
680;DHT22;322;48.846;9.230;2023-07-29T01:57:09;17.50;99.90
680;DHT22;322;48.846;9.230;2023-07-29T01:59:37;17.60;99.90
680;DHT22;322;48.846;9.230;2023-07-29T02:02:05;17.60;99.90
680;DHT22;322;48.846;9.230;2023-07-29T02:04:33;17.70;99.90
680;DHT22;322;48.846;9.230;2023-07-29T02:07:01;17.70;99.90
680;DHT22;322;48.846;9.230;2023-07-29T02:09:28;17.70;99.90
680;DHT22;322;48.846;9.230;2023-07-29T02:11:57;17.60;99.90
680;DHT22;322;48.846;9.230;2023-07-29T02:14:26;17.60;99.90
680;DHT22;322;48.846;9.230;2023-07-29T02:16:54;17.50;99.90
680;DHT22;322;48.846;9.230;2023-07-29T02:19:22;17.50;99.90
680;DHT22;322;48.846;9.230;2023-07-29T02:21:50;17.60;99.90
680;DHT22;322;48.846;9.230;2023-07-29T02:24:18;17.60;99.90
680;DHT22;322;48.846;9.230;2023-07-29T02:26:46;17.50;99.90
680;DHT22;322;48.846;9.230;2023-07-29T02:29:14;17.50;99.90
680;DHT22;322;48.846;9.230;2023-07-29T02:31:43;17.40;99.90
680;DHT22;322;48.846;9.230;2023-07-29T02:34:11;17.40;99.90
680;DHT22;322;48.846;9.230;2023-07-29T02:36:39;17.30;99.90
680;DHT22;322;48.846;9.230;2023-07-29T02:39:07;17.20;99.90
680;DHT22;322;48.846;9.230;2023-07-29T02:41:35;17.30;99.90
680;DHT22;322;48.846;9.230;2023-07-29T02:44:05;17.30;99.90
680;DHT22;322;48.846;9.230;2023-07-29T02:46:33;17.30;99.90
680;DHT22;322;48.846;9.230;2023-07-29T02:49:03;17.50;99.90
680;DHT22;322;48.846;9.230;2023-07-29T02:51:31;17.40;99.90
680;DHT22;322;48.846;9.230;2023-07-29T02:53:59;17.50;99.90
680;DHT22;322;48.846;9.230;2023-07-29T02:56:27;17.40;99.90
680;DHT22;322;48.846;9.230;2023-07-29T02:58:55;17.40;99.90
680;DHT22;322;48.846;9.230;2023-07-29T03:01:23;17.30;99.90
680;DHT22;322;48.846;9.230;2023-07-29T03:03:52;17.40;99.90
680;DHT22;322;48.846;9.230;2023-07-29T03:06:22;17.40;99.90
680;DHT22;322;48.846;9.230;2023-07-29T03:08:50;17.40;99.90
680;DHT22;322;48.846;9.230;2023-07-29T03:11:17;17.30;99.90
680;DHT22;322;48.846;9.230;2023-07-29T03:13:45;17.20;99.90
680;DHT22;322;48.846;9.230;2023-07-29T03:16:14;17.30;99.90
680;DHT22;322;48.846;9.230;2023-07-29T03:18:43;17.20;99.90
680;DHT22;322;48.846;9.230;2023-07-29T03:21:12;17.20;99.90
680;DHT22;322;48.846;9.230;2023-07-29T03:23:41;17.20;99.90
680;DHT22;322;48.846;9.230;2023-07-29T03:26:09;17.20;99.90
680;DHT22;322;48.846;9.230;2023-07-29T03:28:39;17.20;99.90
680;DHT22;322;48.846;9.230;2023-07-29T03:31:07;17.20;99.90
680;DHT22;322;48.846;9.230;2023-07-29T03:33:35;17.20;99.90
680;DHT22;322;48.846;9.230;2023-07-29T03:36:03;17.20;99.90
680;DHT22;322;48.846;9.230;2023-07-29T03:38:31;17.10;99.90
680;DHT22;322;48.846;9.230;2023-07-29T03:41:03;17.10;99.90
680;DHT22;322;48.846;9.230;2023-07-29T03:43:31;17.10;99.90
680;DHT22;322;48.846;9.230;2023-07-29T03:46:00;17.20;99.90
680;DHT22;322;48.846;9.230;2023-07-29T03:48:28;17.20;99.90
680;DHT22;322;48.846;9.230;2023-07-29T03:50:57;17.30;99.90
680;DHT22;322;48.846;9.230;2023-07-29T03:53:25;17.40;99.90
680;DHT22;322;48.846;9.230;2023-07-29T03:55:53;17.30;99.90
680;DHT22;322;48.846;9.230;2023-07-29T03:58:23;17.40;99.90
680;DHT22;322;48.846;9.230;2023-07-29T04:00:51;17.30;99.90
680;DHT22;322;48.846;9.230;2023-07-29T04:03:19;17.40;99.90
680;DHT22;322;48.846;9.230;2023-07-29T04:05:47;17.40;99.90
680;DHT22;322;48.846;9.230;2023-07-29T04:08:15;17.50;99.90
680;DHT22;322;48.846;9.230;2023-07-29T04:10:43;17.60;99.90
680;DHT22;322;48.846;9.230;2023-07-29T04:13:11;17.50;99.90
680;DHT22;322;48.846;9.230;2023-07-29T04:15:40;17.50;99.90
680;DHT22;322;48.846;9.230;2023-07-29T04:18:08;17.40;99.90
680;DHT22;322;48.846;9.230;2023-07-29T04:20:36;17.30;99.90
680;DHT22;322;48.846;9.230;2023-07-29T04:23:04;17.40;99.90
680;DHT22;322;48.846;9.230;2023-07-29T04:25:31;17.50;99.90
680;DHT22;322;48.846;9.230;2023-07-29T04:27:59;17.50;99.90
680;DHT22;322;48.846;9.230;2023-07-29T04:30:29;17.40;99.90
680;DHT22;322;48.846;9.230;2023-07-29T04:32:59;17.50;99.90
680;DHT22;322;48.846;9.230;2023-07-29T04:35:26;17.50;99.90
680;DHT22;322;48.846;9.230;2023-07-29T04:37:54;17.40;99.90
680;DHT22;322;48.846;9.230;2023-07-29T04:40:22;17.50;99.90
680;DHT22;322;48.846;9.230;2023-07-29T04:42:51;17.50;99.90
680;DHT22;322;48.846;9.230;2023-07-29T04:45:19;17.60;99.90
680;DHT22;322;48.846;9.230;2023-07-29T04:47:47;17.50;99.90
680;DHT22;322;48.846;9.230;2023-07-29T04:50:16;17.50;99.90
680;DHT22;322;48.846;9.230;2023-07-29T04:52:44;17.50;99.90
680;DHT22;322;48.846;9.230;2023-07-29T04:55:12;17.50;99.90
680;DHT22;322;48.846;9.230;2023-07-29T04:57:40;17.40;99.90
680;DHT22;322;48.846;9.230;2023-07-29T05:00:08;17.40;99.90
680;DHT22;322;48.846;9.230;2023-07-29T05:02:36;17.40;99.90
680;DHT22;322;48.846;9.230;2023-07-29T05:05:05;17.40;99.90
680;DHT22;322;48.846;9.230;2023-07-29T05:07:34;17.40;99.90
680;DHT22;322;48.846;9.230;2023-07-29T05:10:02;17.40;99.90
680;DHT22;322;48.846;9.230;2023-07-29T05:12:30;17.40;99.90
680;DHT22;322;48.846;9.230;2023-07-29T05:14:59;17.40;99.90
680;DHT22;322;48.846;9.230;2023-07-29T05:17:27;17.40;99.90
680;DHT22;322;48.846;9.230;2023-07-29T05:19:55;17.50;99.90
680;DHT22;322;48.846;9.230;2023-07-29T05:22:23;17.50;99.90
680;DHT22;322;48.846;9.230;2023-07-29T05:24:53;17.60;99.90
680;DHT22;322;48.846;9.230;2023-07-29T05:27:20;17.70;99.90
680;DHT22;322;48.846;9.230;2023-07-29T05:29:48;17.80;99.90
680;DHT22;322;48.846;9.230;2023-07-29T05:32:16;18.00;99.90
680;DHT22;322;48.846;9.230;2023-07-29T05:34:45;18.00;99.90
680;DHT22;322;48.846;9.230;2023-07-29T05:37:13;18.10;99.90
680;DHT22;322;48.846;9.230;2023-07-29T05:39:41;18.10;99.90
680;DHT22;322;48.846;9.230;2023-07-29T05:42:10;18.10;99.90
680;DHT22;322;48.846;9.230;2023-07-29T05:44:38;18.20;99.90
680;DHT22;322;48.846;9.230;2023-07-29T05:47:06;18.20;99.90
680;DHT22;322;48.846;9.230;2023-07-29T05:49:34;18.40;99.90
680;DHT22;322;48.846;9.230;2023-07-29T05:52:02;18.40;99.90
680;DHT22;322;48.846;9.230;2023-07-29T05:54:30;18.40;99.90
680;DHT22;322;48.846;9.230;2023-07-29T05:56:58;18.50;99.90
680;DHT22;322;48.846;9.230;2023-07-29T05:59:27;18.60;99.90
680;DHT22;322;48.846;9.230;2023-07-29T06:01:56;18.70;99.90
680;DHT22;322;48.846;9.230;2023-07-29T06:04:24;18.70;99.90
680;DHT22;322;48.846;9.230;2023-07-29T06:06:52;18.80;99.90
680;DHT22;322;48.846;9.230;2023-07-29T06:09:22;18.90;99.90
680;DHT22;322;48.846;9.230;2023-07-29T06:11:50;19.00;99.90
680;DHT22;322;48.846;9.230;2023-07-29T06:14:21;19.20;99.90
680;DHT22;322;48.846;9.230;2023-07-29T06:16:50;19.30;99.90
680;DHT22;322;48.846;9.230;2023-07-29T06:19:19;19.40;99.90
680;DHT22;322;48.846;9.230;2023-07-29T06:21:48;19.60;99.90
680;DHT22;322;48.846;9.230;2023-07-29T06:24:16;19.70;99.90
680;DHT22;322;48.846;9.230;2023-07-29T06:26:44;19.80;99.90
680;DHT22;322;48.846;9.230;2023-07-29T06:29:11;19.90;99.90
680;DHT22;322;48.846;9.230;2023-07-29T06:31:39;20.10;99.90
680;DHT22;322;48.846;9.230;2023-07-29T06:34:09;20.10;99.90
680;DHT22;322;48.846;9.230;2023-07-29T06:36:36;20.10;99.90
680;DHT22;322;48.846;9.230;2023-07-29T06:39:05;20.10;99.90
680;DHT22;322;48.846;9.230;2023-07-29T06:41:33;20.00;99.90
680;DHT22;322;48.846;9.230;2023-07-29T06:44:01;20.10;99.90
680;DHT22;322;48.846;9.230;2023-07-29T06:46:29;20.10;99.90
680;DHT22;322;48.846;9.230;2023-07-29T06:48:56;20.00;99.90
680;DHT22;322;48.846;9.230;2023-07-29T06:51:26;20.00;99.90
680;DHT22;322;48.846;9.230;2023-07-29T06:53:56;19.80;99.90
680;DHT22;322;48.846;9.230;2023-07-29T06:56:24;19.80;99.90
680;DHT22;322;48.846;9.230;2023-07-29T06:58:51;19.60;99.90
680;DHT22;322;48.846;9.230;2023-07-29T07:01:19;19.60;99.90
680;DHT22;322;48.846;9.230;2023-07-29T07:03:47;19.50;99.90
680;DHT22;322;48.846;9.230;2023-07-29T07:06:15;19.40;99.90
680;DHT22;322;48.846;9.230;2023-07-29T07:08:45;19.40;99.90
680;DHT22;322;48.846;9.230;2023-07-29T07:11:13;19.40;99.90
680;DHT22;322;48.846;9.230;2023-07-29T07:13:40;19.30;99.90
680;DHT22;322;48.846;9.230;2023-07-29T07:16:08;19.10;99.90
680;DHT22;322;48.846;9.230;2023-07-29T07:18:39;19.10;99.90
680;DHT22;322;48.846;9.230;2023-07-29T07:21:07;19.00;99.90
680;DHT22;322;48.846;9.230;2023-07-29T07:23:35;19.00;99.90
680;DHT22;322;48.846;9.230;2023-07-29T07:26:04;19.00;99.90
680;DHT22;322;48.846;9.230;2023-07-29T07:28:32;18.90;99.90
680;DHT22;322;48.846;9.230;2023-07-29T07:31:00;18.80;99.90
680;DHT22;322;48.846;9.230;2023-07-29T07:33:28;18.80;99.90
680;DHT22;322;48.846;9.230;2023-07-29T07:35:56;18.90;99.90
680;DHT22;322;48.846;9.230;2023-07-29T07:38:24;19.00;99.90
680;DHT22;322;48.846;9.230;2023-07-29T07:40:57;19.10;99.90
680;DHT22;322;48.846;9.230;2023-07-29T07:43:26;19.10;99.90
680;DHT22;322;48.846;9.230;2023-07-29T07:45:58;19.20;99.90
680;DHT22;322;48.846;9.230;2023-07-29T07:48:26;19.30;99.90
680;DHT22;322;48.846;9.230;2023-07-29T07:50:54;19.40;99.90
680;DHT22;322;48.846;9.230;2023-07-29T07:53:22;19.60;99.90
680;DHT22;322;48.846;9.230;2023-07-29T07:55:54;19.70;99.90
680;DHT22;322;48.846;9.230;2023-07-29T07:58:23;19.80;99.90
680;DHT22;322;48.846;9.230;2023-07-29T08:00:52;19.90;99.90
680;DHT22;322;48.846;9.230;2023-07-29T08:03:28;19.90;99.90
680;DHT22;322;48.846;9.230;2023-07-29T08:05:56;20.10;99.90
680;DHT22;322;48.846;9.230;2023-07-29T08:08:24;20.30;99.90
680;DHT22;322;48.846;9.230;2023-07-29T08:10:52;20.50;99.90
680;DHT22;322;48.846;9.230;2023-07-29T08:13:21;20.70;99.90
680;DHT22;322;48.846;9.230;2023-07-29T08:15:50;20.70;99.90
680;DHT22;322;48.846;9.230;2023-07-29T08:18:19;20.70;99.90
680;DHT22;322;48.846;9.230;2023-07-29T08:20:52;20.80;99.90
680;DHT22;322;48.846;9.230;2023-07-29T08:23:21;21.00;99.90
680;DHT22;322;48.846;9.230;2023-07-29T08:25:54;21.20;99.90
680;DHT22;322;48.846;9.230;2023-07-29T08:28:28;21.50;99.90
680;DHT22;322;48.846;9.230;2023-07-29T08:30:56;21.70;99.90
680;DHT22;322;48.846;9.230;2023-07-29T08:33:26;21.80;99.90
680;DHT22;322;48.846;9.230;2023-07-29T08:35:54;21.90;99.90
680;DHT22;322;48.846;9.230;2023-07-29T08:38:23;21.80;99.90
680;DHT22;322;48.846;9.230;2023-07-29T08:40:59;21.80;99.90
680;DHT22;322;48.846;9.230;2023-07-29T08:43:31;21.90;99.90
680;DHT22;322;48.846;9.230;2023-07-29T08:46:00;22.10;99.90
680;DHT22;322;48.846;9.230;2023-07-29T08:48:33;22.20;99.90
680;DHT22;322;48.846;9.230;2023-07-29T08:51:04;22.30;99.90
680;DHT22;322;48.846;9.230;2023-07-29T08:53:32;22.40;99.90
680;DHT22;322;48.846;9.230;2023-07-29T08:56:00;22.60;99.90
680;DHT22;322;48.846;9.230;2023-07-29T08:58:28;22.80;99.90
680;DHT22;322;48.846;9.230;2023-07-29T09:00:56;22.90;99.90
680;DHT22;322;48.846;9.230;2023-07-29T09:03:25;23.30;99.90
680;DHT22;322;48.846;9.230;2023-07-29T09:05:55;23.70;99.90
680;DHT22;322;48.846;9.230;2023-07-29T09:08:26;24.20;99.90
680;DHT22;322;48.846;9.230;2023-07-29T09:10:54;24.50;99.90
680;DHT22;322;48.846;9.230;2023-07-29T09:13:22;24.60;99.90
680;DHT22;322;48.846;9.230;2023-07-29T09:15:54;24.90;99.90
680;DHT22;322;48.846;9.230;2023-07-29T09:18:22;25.10;99.90
680;DHT22;322;48.846;9.230;2023-07-29T09:20:50;25.10;99.90
680;DHT22;322;48.846;9.230;2023-07-29T09:23:19;25.00;99.90
680;DHT22;322;48.846;9.230;2023-07-29T09:25:47;25.00;99.90
680;DHT22;322;48.846;9.230;2023-07-29T09:28:16;25.20;99.90
680;DHT22;322;48.846;9.230;2023-07-29T09:30:45;25.30;99.90
680;DHT22;322;48.846;9.230;2023-07-29T09:33:14;25.60;99.90
680;DHT22;322;48.846;9.230;2023-07-29T09:35:42;25.70;99.90
680;DHT22;322;48.846;9.230;2023-07-29T09:38:14;26.00;99.90
680;DHT22;322;48.846;9.230;2023-07-29T09:40:44;26.30;99.90
680;DHT22;322;48.846;9.230;2023-07-29T09:43:12;26.60;99.90
680;DHT22;322;48.846;9.230;2023-07-29T09:45:46;26.10;99.90
680;DHT22;322;48.846;9.230;2023-07-29T09:48:14;25.90;99.90
680;DHT22;322;48.846;9.230;2023-07-29T09:50:42;26.00;99.90
680;DHT22;322;48.846;9.230;2023-07-29T09:53:10;26.00;99.90
680;DHT22;322;48.846;9.230;2023-07-29T09:55:38;25.30;99.90
680;DHT22;322;48.846;9.230;2023-07-29T09:58:08;24.90;99.90
680;DHT22;322;48.846;9.230;2023-07-29T10:00:36;24.50;99.90
680;DHT22;322;48.846;9.230;2023-07-29T10:03:06;24.60;99.90
680;DHT22;322;48.846;9.230;2023-07-29T10:05:34;25.00;99.90
680;DHT22;322;48.846;9.230;2023-07-29T10:08:02;25.00;99.90
680;DHT22;322;48.846;9.230;2023-07-29T10:10:31;25.20;99.90
680;DHT22;322;48.846;9.230;2023-07-29T10:13:00;25.40;99.90
680;DHT22;322;48.846;9.230;2023-07-29T10:15:31;25.50;99.90
680;DHT22;322;48.846;9.230;2023-07-29T10:18:00;25.10;99.90
680;DHT22;322;48.846;9.230;2023-07-29T10:20:30;24.50;99.90
680;DHT22;322;48.846;9.230;2023-07-29T10:22:59;23.90;99.90
680;DHT22;322;48.846;9.230;2023-07-29T10:25:36;23.40;99.90
680;DHT22;322;48.846;9.230;2023-07-29T10:28:06;23.20;99.90
680;DHT22;322;48.846;9.230;2023-07-29T10:30:35;22.90;99.90
680;DHT22;322;48.846;9.230;2023-07-29T10:33:05;22.70;99.90
680;DHT22;322;48.846;9.230;2023-07-29T10:35:33;22.60;99.90
680;DHT22;322;48.846;9.230;2023-07-29T10:38:02;22.50;99.90
680;DHT22;322;48.846;9.230;2023-07-29T10:40:44;22.40;99.90
680;DHT22;322;48.846;9.230;2023-07-29T10:43:19;22.50;99.90
680;DHT22;322;48.846;9.230;2023-07-29T10:45:48;22.80;99.90
680;DHT22;322;48.846;9.230;2023-07-29T10:48:43;23.10;99.90
680;DHT22;322;48.846;9.230;2023-07-29T10:51:28;23.20;99.90
680;DHT22;322;48.846;9.230;2023-07-29T10:53:58;23.50;99.90
680;DHT22;322;48.846;9.230;2023-07-29T10:56:28;23.70;99.90
680;DHT22;322;48.846;9.230;2023-07-29T10:58:57;24.10;99.90
680;DHT22;322;48.846;9.230;2023-07-29T11:01:30;24.60;99.90
680;DHT22;322;48.846;9.230;2023-07-29T11:04:22;25.30;99.90
680;DHT22;322;48.846;9.230;2023-07-29T11:07:19;25.70;99.90
680;DHT22;322;48.846;9.230;2023-07-29T11:09:58;25.40;99.90
680;DHT22;322;48.846;9.230;2023-07-29T11:12:40;25.00;99.90
680;DHT22;322;48.846;9.230;2023-07-29T11:15:14;25.10;99.90
680;DHT22;322;48.846;9.230;2023-07-29T11:17:46;25.40;99.90
680;DHT22;322;48.846;9.230;2023-07-29T11:20:16;25.30;99.90
680;DHT22;322;48.846;9.230;2023-07-29T11:22:44;25.30;99.90
680;DHT22;322;48.846;9.230;2023-07-29T11:25:14;25.40;99.90
680;DHT22;322;48.846;9.230;2023-07-29T11:27:43;25.70;99.90
680;DHT22;322;48.846;9.230;2023-07-29T11:30:12;26.20;99.90
680;DHT22;322;48.846;9.230;2023-07-29T11:32:42;26.60;99.90
680;DHT22;322;48.846;9.230;2023-07-29T11:35:13;26.20;99.90
680;DHT22;322;48.846;9.230;2023-07-29T11:37:43;26.00;99.90
680;DHT22;322;48.846;9.230;2023-07-29T11:40:14;25.60;99.90
680;DHT22;322;48.846;9.230;2023-07-29T11:42:43;25.50;99.90
680;DHT22;322;48.846;9.230;2023-07-29T11:45:11;25.70;99.90
680;DHT22;322;48.846;9.230;2023-07-29T11:47:43;26.10;99.90
680;DHT22;322;48.846;9.230;2023-07-29T11:50:14;26.40;99.90
680;DHT22;322;48.846;9.230;2023-07-29T11:52:45;26.40;99.90
680;DHT22;322;48.846;9.230;2023-07-29T11:55:14;26.30;99.90
680;DHT22;322;48.846;9.230;2023-07-29T11:57:43;26.00;99.90
680;DHT22;322;48.846;9.230;2023-07-29T12:00:11;25.70;99.90
680;DHT22;322;48.846;9.230;2023-07-29T12:02:42;25.90;99.90
680;DHT22;322;48.846;9.230;2023-07-29T12:05:14;26.50;99.90
680;DHT22;322;48.846;9.230;2023-07-29T12:07:43;27.20;99.90
680;DHT22;322;48.846;9.230;2023-07-29T12:10:12;27.50;99.90
680;DHT22;322;48.846;9.230;2023-07-29T12:12:46;27.70;99.90
680;DHT22;322;48.846;9.230;2023-07-29T12:15:23;27.90;97.70
680;DHT22;322;48.846;9.230;2023-07-29T12:17:54;27.90;97.20
680;DHT22;322;48.846;9.230;2023-07-29T12:20:26;27.90;97.10
680;DHT22;322;48.846;9.230;2023-07-29T12:22:55;28.10;95.70
680;DHT22;322;48.846;9.230;2023-07-29T12:25:24;28.00;95.30
680;DHT22;322;48.846;9.230;2023-07-29T12:27:53;27.90;95.70
680;DHT22;322;48.846;9.230;2023-07-29T12:30:21;27.80;97.40
680;DHT22;322;48.846;9.230;2023-07-29T12:32:50;27.80;95.50
680;DHT22;322;48.846;9.230;2023-07-29T12:35:18;27.70;96.70
680;DHT22;322;48.846;9.230;2023-07-29T12:37:58;28.30;95.40
680;DHT22;322;48.846;9.230;2023-07-29T12:40:27;27.90;91.80
680;DHT22;322;48.846;9.230;2023-07-29T12:42:57;27.80;87.90
680;DHT22;322;48.846;9.230;2023-07-29T12:45:25;27.80;89.20
680;DHT22;322;48.846;9.230;2023-07-29T12:47:56;28.30;89.70
680;DHT22;322;48.846;9.230;2023-07-29T12:50:24;28.90;81.60
680;DHT22;322;48.846;9.230;2023-07-29T12:52:53;29.10;76.00
680;DHT22;322;48.846;9.230;2023-07-29T12:55:22;29.10;75.20
680;DHT22;322;48.846;9.230;2023-07-29T12:57:50;29.40;69.40
680;DHT22;322;48.846;9.230;2023-07-29T13:00:18;29.80;67.40
680;DHT22;322;48.846;9.230;2023-07-29T13:02:46;29.70;68.10
680;DHT22;322;48.846;9.230;2023-07-29T13:05:14;29.50;67.20
680;DHT22;322;48.846;9.230;2023-07-29T13:07:43;29.20;69.80
680;DHT22;322;48.846;9.230;2023-07-29T13:10:12;29.20;68.70
680;DHT22;322;48.846;9.230;2023-07-29T13:12:41;28.30;70.40
680;DHT22;322;48.846;9.230;2023-07-29T13:15:09;27.90;75.40
680;DHT22;322;48.846;9.230;2023-07-29T13:17:37;28.50;72.50
680;DHT22;322;48.846;9.230;2023-07-29T13:20:07;28.90;66.90
680;DHT22;322;48.846;9.230;2023-07-29T13:22:35;29.20;68.80
680;DHT22;322;48.846;9.230;2023-07-29T13:25:03;29.10;69.80
680;DHT22;322;48.846;9.230;2023-07-29T13:27:33;29.40;67.40
680;DHT22;322;48.846;9.230;2023-07-29T13:30:01;28.90;68.00
680;DHT22;322;48.846;9.230;2023-07-29T13:32:29;28.80;71.10
680;DHT22;322;48.846;9.230;2023-07-29T13:34:57;29.20;67.80
680;DHT22;322;48.846;9.230;2023-07-29T13:37:25;28.70;68.30
680;DHT22;322;48.846;9.230;2023-07-29T13:39:52;28.60;68.70
680;DHT22;322;48.846;9.230;2023-07-29T13:42:20;28.00;69.80
680;DHT22;322;48.846;9.230;2023-07-29T13:44:50;27.50;71.70
680;DHT22;322;48.846;9.230;2023-07-29T13:47:18;27.40;73.20
680;DHT22;322;48.846;9.230;2023-07-29T13:49:46;27.20;71.40
680;DHT22;322;48.846;9.230;2023-07-29T13:52:14;27.00;73.00
680;DHT22;322;48.846;9.230;2023-07-29T13:54:42;26.80;73.00
680;DHT22;322;48.846;9.230;2023-07-29T13:57:10;26.70;75.20
680;DHT22;322;48.846;9.230;2023-07-29T13:59:38;26.60;76.10
680;DHT22;322;48.846;9.230;2023-07-29T14:02:07;26.70;77.00
680;DHT22;322;48.846;9.230;2023-07-29T14:04:35;27.00;75.80
680;DHT22;322;48.846;9.230;2023-07-29T14:07:04;27.00;72.70
680;DHT22;322;48.846;9.230;2023-07-29T14:09:32;26.80;74.00
680;DHT22;322;48.846;9.230;2023-07-29T14:12:00;26.80;74.60
680;DHT22;322;48.846;9.230;2023-07-29T14:14:28;26.80;73.60
680;DHT22;322;48.846;9.230;2023-07-29T14:16:56;27.10;73.80
680;DHT22;322;48.846;9.230;2023-07-29T14:19:25;28.60;73.20
680;DHT22;322;48.846;9.230;2023-07-29T14:21:53;30.10;64.40
680;DHT22;322;48.846;9.230;2023-07-29T14:24:21;30.60;61.80
680;DHT22;322;48.846;9.230;2023-07-29T14:26:49;30.50;61.20
680;DHT22;322;48.846;9.230;2023-07-29T14:29:17;30.70;60.60
680;DHT22;322;48.846;9.230;2023-07-29T14:31:45;31.00;60.00
680;DHT22;322;48.846;9.230;2023-07-29T14:34:13;30.20;61.20
680;DHT22;322;48.846;9.230;2023-07-29T14:36:42;29.00;65.30
680;DHT22;322;48.846;9.230;2023-07-29T14:39:10;28.20;68.30
680;DHT22;322;48.846;9.230;2023-07-29T14:41:38;27.50;69.60
680;DHT22;322;48.846;9.230;2023-07-29T14:44:06;27.10;72.80
680;DHT22;322;48.846;9.230;2023-07-29T14:46:34;27.00;73.50
680;DHT22;322;48.846;9.230;2023-07-29T14:49:02;26.90;74.30
680;DHT22;322;48.846;9.230;2023-07-29T14:51:30;26.90;74.20
680;DHT22;322;48.846;9.230;2023-07-29T14:54:00;26.90;74.80
680;DHT22;322;48.846;9.230;2023-07-29T14:56:28;27.00;74.10
680;DHT22;322;48.846;9.230;2023-07-29T14:58:56;27.30;74.80
680;DHT22;322;48.846;9.230;2023-07-29T15:01:24;27.80;73.20
680;DHT22;322;48.846;9.230;2023-07-29T15:03:52;28.50;73.00
680;DHT22;322;48.846;9.230;2023-07-29T15:06:20;29.20;70.00
680;DHT22;322;48.846;9.230;2023-07-29T15:08:48;29.60;67.60
680;DHT22;322;48.846;9.230;2023-07-29T15:11:17;29.20;66.40
680;DHT22;322;48.846;9.230;2023-07-29T15:13:45;28.70;68.70
680;DHT22;322;48.846;9.230;2023-07-29T15:16:13;28.30;71.40
680;DHT22;322;48.846;9.230;2023-07-29T15:18:41;28.30;72.30
680;DHT22;322;48.846;9.230;2023-07-29T15:21:09;29.10;67.80
680;DHT22;322;48.846;9.230;2023-07-29T15:23:37;30.10;67.80
680;DHT22;322;48.846;9.230;2023-07-29T15:26:05;31.10;63.20
680;DHT22;322;48.846;9.230;2023-07-29T15:28:34;30.70;63.70
680;DHT22;322;48.846;9.230;2023-07-29T15:31:02;29.70;65.30
680;DHT22;322;48.846;9.230;2023-07-29T15:33:30;28.80;68.20
680;DHT22;322;48.846;9.230;2023-07-29T15:36:01;28.30;70.80
680;DHT22;322;48.846;9.230;2023-07-29T15:38:28;27.70;71.70
680;DHT22;322;48.846;9.230;2023-07-29T15:40:56;27.30;74.00
680;DHT22;322;48.846;9.230;2023-07-29T15:43:24;27.20;75.40
680;DHT22;322;48.846;9.230;2023-07-29T15:45:55;27.30;74.10
680;DHT22;322;48.846;9.230;2023-07-29T15:48:24;27.30;76.70
680;DHT22;322;48.846;9.230;2023-07-29T15:50:52;27.20;75.50
680;DHT22;322;48.846;9.230;2023-07-29T15:53:19;27.00;76.10
680;DHT22;322;48.846;9.230;2023-07-29T15:55:47;26.80;77.30
680;DHT22;322;48.846;9.230;2023-07-29T15:58:15;26.50;78.40
680;DHT22;322;48.846;9.230;2023-07-29T16:00:43;26.40;80.10
680;DHT22;322;48.846;9.230;2023-07-29T16:03:12;26.50;80.30
680;DHT22;322;48.846;9.230;2023-07-29T16:05:40;26.90;79.20
680;DHT22;322;48.846;9.230;2023-07-29T16:08:10;27.10;78.30
680;DHT22;322;48.846;9.230;2023-07-29T16:10:38;27.00;78.20
680;DHT22;322;48.846;9.230;2023-07-29T16:13:06;26.80;79.60
680;DHT22;322;48.846;9.230;2023-07-29T16:15:34;27.10;80.70
680;DHT22;322;48.846;9.230;2023-07-29T16:18:03;27.20;78.20
680;DHT22;322;48.846;9.230;2023-07-29T16:20:32;27.40;76.30
680;DHT22;322;48.846;9.230;2023-07-29T16:23:00;27.60;78.10
680;DHT22;322;48.846;9.230;2023-07-29T16:25:28;28.10;76.10
680;DHT22;322;48.846;9.230;2023-07-29T16:27:56;28.40;74.60
680;DHT22;322;48.846;9.230;2023-07-29T16:30:24;28.50;75.70
680;DHT22;322;48.846;9.230;2023-07-29T16:32:52;28.80;73.30
680;DHT22;322;48.846;9.230;2023-07-29T16:35:20;28.60;71.80
680;DHT22;322;48.846;9.230;2023-07-29T16:37:49;28.50;72.00
680;DHT22;322;48.846;9.230;2023-07-29T16:40:18;28.50;73.40
680;DHT22;322;48.846;9.230;2023-07-29T16:42:46;29.00;74.30
680;DHT22;322;48.846;9.230;2023-07-29T16:45:14;29.30;73.50
680;DHT22;322;48.846;9.230;2023-07-29T16:47:42;29.30;73.30